createdAt,value
2019-04-07T00:00:27.762Z,12.10
2019-04-07T00:02:56.847Z,12.10
2019-04-07T00:05:25.645Z,12.10
2019-04-07T00:07:56.070Z,12.10
2019-04-07T00:10:25.951Z,12.10
2019-04-07T00:12:54.795Z,12.10
2019-04-07T00:15:23.478Z,12.10
2019-04-07T00:17:52.043Z,12.00
2019-04-07T00:20:20.862Z,12.00
2019-04-07T00:22:49.919Z,12.00
2019-04-07T00:25:19.287Z,12.00
2019-04-07T00:27:47.793Z,11.90
2019-04-07T00:30:16.900Z,11.90
2019-04-07T00:32:46.653Z,11.90
2019-04-07T00:35:23.411Z,11.80
2019-04-07T00:37:46.096Z,11.80
2019-04-07T00:40:15.493Z,11.80
2019-04-07T00:42:44.407Z,11.80
2019-04-07T00:45:14.095Z,11.70
2019-04-07T00:47:43.021Z,11.70
2019-04-07T00:50:12.098Z,11.70
2019-04-07T00:52:40.775Z,11.60
2019-04-07T00:55:09.924Z,11.60
2019-04-07T00:57:38.474Z,11.60
2019-04-07T01:00:10.593Z,11.50
2019-04-07T01:02:39.841Z,11.50
2019-04-07T01:05:08.613Z,11.50
2019-04-07T01:07:37.131Z,11.40
2019-04-07T01:10:07.219Z,11.40
2019-04-07T01:12:35.841Z,11.40
2019-04-07T01:15:07.740Z,11.40
2019-04-07T01:17:37.003Z,11.40
2019-04-07T01:20:08.882Z,11.40
2019-04-07T01:22:37.441Z,11.40
2019-04-07T01:25:07.142Z,11.30
2019-04-07T01:27:35.832Z,11.30
2019-04-07T01:30:06.262Z,11.30
2019-04-07T01:32:35.601Z,11.30
2019-04-07T01:35:04.996Z,11.20
2019-04-07T01:37:34.060Z,11.20
2019-04-07T01:40:03.133Z,11.20
2019-04-07T01:42:49.971Z,11.20
2019-04-07T01:45:23.698Z,11.20
2019-04-07T01:48:10.312Z,11.10
2019-04-07T01:50:55.185Z,11.10
2019-04-07T01:53:28.246Z,11.00
2019-04-07T01:56:01.816Z,11.00
2019-04-07T01:58:35.428Z,11.00
2019-04-07T02:01:18.324Z,11.00
2019-04-07T02:03:49.528Z,10.90
2019-04-07T02:06:25.705Z,10.90
2019-04-07T02:08:58.865Z,10.90
2019-04-07T02:11:32.573Z,10.90
2019-04-07T02:14:21.286Z,10.90
2019-04-07T02:16:51.561Z,10.80
2019-04-07T02:19:30.768Z,10.80
2019-04-07T02:22:04.640Z,10.80
2019-04-07T02:24:34.737Z,10.80
2019-04-07T02:27:21.917Z,10.70
2019-04-07T02:30:07.837Z,10.70
2019-04-07T02:32:47.074Z,10.70
2019-04-07T02:35:17.144Z,10.60
2019-04-07T02:37:48.161Z,10.60
2019-04-07T02:40:28.447Z,10.60
2019-04-07T02:43:05.233Z,10.60
2019-04-07T02:45:50.751Z,10.50
2019-04-07T02:48:39.522Z,10.50
2019-04-07T02:51:11.478Z,10.50
2019-04-07T02:53:41.540Z,10.40
2019-04-07T02:56:11.845Z,10.40
2019-04-07T02:58:59.399Z,10.40
2019-04-07T03:01:33.014Z,10.40
2019-04-07T03:04:20.446Z,10.40
2019-04-07T03:07:00.563Z,10.40
2019-04-07T03:09:36.755Z,10.40
2019-04-07T03:12:10.395Z,10.40
2019-04-07T03:14:41.291Z,10.50
2019-04-07T03:17:14.025Z,10.50
2019-04-07T03:19:56.225Z,10.50
2019-04-07T03:22:43.761Z,10.60
2019-04-07T03:25:15.619Z,10.60
2019-04-07T03:27:52.715Z,10.60
2019-04-07T03:30:29.968Z,10.60
2019-04-07T03:33:02.800Z,10.60
2019-04-07T03:35:53.150Z,10.60
2019-04-07T03:38:22.579Z,10.60
2019-04-07T03:40:52.637Z,10.60
2019-04-07T03:43:23.761Z,10.60
2019-04-07T03:45:55.001Z,10.60
2019-04-07T03:48:37.999Z,10.60
2019-04-07T03:51:20.394Z,10.50
2019-04-07T03:53:54.070Z,10.50
2019-04-07T03:56:25.405Z,10.40
2019-04-07T03:59:01.100Z,10.40
2019-04-07T04:01:35.421Z,10.40
2019-04-07T04:04:07.714Z,10.30
2019-04-07T04:06:47.021Z,10.30
2019-04-07T04:09:17.603Z,10.30
2019-04-07T04:11:47.827Z,10.20
2019-04-07T04:14:26.783Z,10.20
2019-04-07T04:16:56.176Z,10.20
2019-04-07T04:19:26.156Z,10.30
2019-04-07T04:21:55.621Z,10.30
2019-04-07T04:24:24.073Z,10.30
2019-04-07T04:26:53.641Z,10.30
2019-04-07T04:29:23.369Z,10.30
2019-04-07T04:31:53.075Z,10.40
2019-04-07T04:34:21.502Z,10.40
2019-04-07T04:36:50.272Z,10.40
2019-04-07T04:39:20.961Z,10.40
2019-04-07T04:41:49.255Z,10.40
2019-04-07T04:44:18.642Z,10.40
2019-04-07T04:46:48.559Z,10.40
2019-04-07T04:49:17.138Z,10.30
2019-04-07T04:51:45.862Z,10.30
2019-04-07T04:54:14.523Z,10.30
2019-04-07T04:56:44.892Z,10.20
2019-04-07T04:59:13.658Z,10.30
2019-04-07T05:01:42.270Z,10.20
2019-04-07T05:04:11.490Z,10.20
2019-04-07T05:06:41.300Z,10.10
2019-04-07T05:09:09.873Z,10.10
2019-04-07T05:11:38.654Z,10.10
2019-04-07T05:14:07.179Z,10.00
2019-04-07T05:16:35.662Z,10.00
2019-04-07T05:19:04.482Z,10.10
2019-04-07T05:21:33.918Z,10.00
2019-04-07T05:24:02.818Z,10.00
2019-04-07T05:26:31.254Z,10.10
2019-04-07T05:29:00.430Z,10.00
2019-04-07T05:31:30.462Z,10.10
2019-04-07T05:34:00.270Z,10.10
2019-04-07T05:36:28.884Z,10.10
2019-04-07T05:38:57.483Z,10.10
2019-04-07T05:41:26.310Z,10.10
2019-04-07T05:43:55.662Z,10.10
2019-04-07T05:46:24.997Z,10.10
2019-04-07T05:48:53.558Z,10.10
2019-04-07T05:51:22.886Z,10.10
2019-04-07T05:53:52.656Z,10.20
2019-04-07T05:56:25.973Z,10.20
2019-04-07T05:58:52.746Z,10.20
2019-04-07T06:01:23.677Z,10.30
2019-04-07T06:03:52.235Z,10.40
2019-04-07T06:06:21.522Z,10.50
2019-04-07T06:08:50.641Z,10.60
2019-04-07T06:11:19.511Z,10.60
2019-04-07T06:13:48.723Z,10.80
2019-04-07T06:16:19.951Z,10.80
2019-04-07T06:18:48.223Z,10.90
2019-04-07T06:21:17.356Z,11.00
2019-04-07T06:23:46.117Z,11.10
2019-04-07T06:26:15.088Z,11.10
2019-04-07T06:28:46.680Z,11.20
2019-04-07T06:31:14.146Z,11.30
2019-04-07T06:33:42.992Z,11.40
2019-04-07T06:36:11.606Z,11.50
2019-04-07T06:38:43.634Z,11.50
2019-04-07T06:41:11.437Z,11.60
2019-04-07T06:43:40.429Z,11.70
2019-04-07T06:46:24.625Z,11.80
2019-04-07T06:48:55.121Z,12.00
2019-04-07T06:51:29.186Z,12.00
2019-04-07T06:54:18.547Z,12.10
2019-04-07T06:57:04.345Z,12.20
2019-04-07T06:59:33.991Z,12.30
2019-04-07T07:02:12.086Z,12.40
2019-04-07T07:04:48.619Z,12.50
2019-04-07T07:07:25.326Z,12.50
2019-04-07T07:10:06.328Z,12.70
2019-04-07T07:12:39.133Z,12.70
2019-04-07T07:15:09.138Z,12.80
2019-04-07T07:17:52.668Z,12.90
2019-04-07T07:20:32.789Z,13.00
2019-04-07T07:23:05.958Z,13.00
2019-04-07T07:25:34.910Z,13.10
2019-04-07T07:28:04.331Z,13.20
2019-04-07T07:30:32.955Z,13.20
2019-04-07T07:33:01.954Z,13.30
2019-04-07T07:35:30.505Z,13.40
2019-04-07T07:37:59.757Z,13.40
2019-04-07T07:40:28.656Z,13.50
2019-04-07T07:42:59.137Z,13.50
2019-04-07T07:45:28.338Z,13.60
2019-04-07T07:47:56.769Z,13.60
2019-04-07T07:50:26.608Z,13.70
2019-04-07T07:52:56.079Z,13.70
2019-04-07T07:55:25.283Z,13.80
2019-04-07T07:57:56.461Z,13.80
2019-04-07T08:00:26.571Z,13.90
2019-04-07T08:02:55.831Z,13.90
2019-04-07T08:05:29.905Z,14.00
2019-04-07T08:07:56.145Z,14.10
2019-04-07T08:10:26.639Z,14.20
2019-04-07T08:12:56.308Z,14.20
2019-04-07T08:15:29.678Z,14.30
2019-04-07T08:17:55.192Z,14.40
2019-04-07T08:20:24.227Z,14.40
2019-04-07T08:22:53.063Z,14.50
2019-04-07T08:25:23.687Z,14.60
2019-04-07T08:27:51.691Z,14.60
2019-04-07T08:30:20.262Z,14.70
2019-04-07T08:32:48.841Z,14.80
2019-04-07T08:35:17.663Z,14.90
2019-04-07T08:37:48.161Z,14.90
2019-04-07T08:40:16.694Z,15.00
2019-04-07T08:42:48.269Z,15.10
2019-04-07T08:45:15.587Z,15.20
2019-04-07T08:47:47.340Z,15.30
2019-04-07T08:50:15.175Z,15.30
2019-04-07T08:52:43.917Z,15.40
2019-04-07T08:55:12.904Z,15.40
2019-04-07T08:57:42.319Z,15.50
2019-04-07T09:00:14.936Z,15.60
2019-04-07T09:02:43.814Z,15.70
2019-04-07T09:05:12.952Z,15.80
2019-04-07T09:07:42.610Z,15.90
2019-04-07T09:10:17.043Z,16.10
2019-04-07T09:12:44.069Z,16.20
2019-04-07T09:15:14.288Z,16.40
2019-04-07T09:17:48.713Z,16.50
2019-04-07T09:20:20.023Z,16.70
2019-04-07T09:22:59.374Z,16.90
2019-04-07T09:25:31.837Z,17.10
2019-04-07T09:28:04.126Z,17.40
2019-04-07T09:30:40.044Z,17.70
2019-04-07T09:33:11.449Z,18.00
2019-04-07T09:35:44.328Z,18.30
2019-04-07T09:38:15.299Z,18.70
2019-04-07T09:41:01.671Z,19.30
2019-04-07T09:43:49.427Z,19.80
2019-04-07T09:46:33.250Z,20.50
2019-04-07T09:49:05.956Z,21.10
2019-04-07T09:51:41.344Z,21.50
2019-04-07T09:54:11.108Z,21.90
2019-04-07T09:56:45.048Z,22.30
2019-04-07T09:59:30.696Z,22.60
2019-04-07T10:02:14.545Z,23.00
2019-04-07T10:04:45.151Z,23.40
2019-04-07T10:07:34.861Z,23.50
2019-04-07T10:10:14.364Z,23.70
2019-04-07T10:12:43.570Z,23.90
2019-04-07T10:15:16.652Z,24.10
2019-04-07T10:17:47.088Z,24.30
2019-04-07T10:20:32.601Z,24.60
2019-04-07T10:23:03.048Z,24.80
2019-04-07T10:25:33.432Z,25.00
2019-04-07T10:28:19.904Z,25.10
2019-04-07T10:30:50.019Z,25.30
2019-04-07T10:33:23.745Z,25.40
2019-04-07T10:36:12.050Z,25.50
2019-04-07T10:38:58.664Z,25.50
2019-04-07T10:41:45.389Z,25.50
2019-04-07T10:44:19.374Z,25.40
2019-04-07T10:46:50.429Z,25.40
2019-04-07T10:49:21.369Z,25.40
2019-04-07T10:51:52.276Z,25.20
2019-04-07T10:54:38.198Z,25.20
2019-04-07T10:57:18.818Z,25.00
2019-04-07T11:00:05.802Z,24.80
2019-04-07T11:02:54.867Z,24.60
2019-04-07T11:05:37.070Z,24.40
2019-04-07T11:08:10.529Z,24.30
2019-04-07T11:10:44.199Z,24.00
2019-04-07T11:13:18.503Z,23.90
2019-04-07T11:15:49.785Z,23.80
2019-04-07T11:18:23.054Z,23.70
2019-04-07T11:20:54.443Z,23.60
2019-04-07T11:23:31.992Z,23.50
2019-04-07T11:26:02.644Z,23.50
2019-04-07T11:28:33.790Z,23.60
2019-04-07T11:31:04.323Z,23.60
2019-04-07T11:33:35.072Z,23.50
2019-04-07T11:36:24.487Z,23.40
2019-04-07T11:38:55.928Z,23.40
2019-04-07T11:41:28.873Z,23.30
2019-04-07T11:44:00.681Z,23.10
2019-04-07T11:46:30.805Z,23.10
2019-04-07T11:49:02.684Z,23.10
2019-04-07T11:51:42.463Z,23.00
2019-04-07T11:54:14.278Z,22.80
2019-04-07T11:56:47.698Z,22.70
2019-04-07T11:59:23.822Z,22.70
2019-04-07T12:02:04.570Z,22.60
2019-04-07T12:04:51.761Z,22.50
2019-04-07T12:07:25.336Z,22.50
2019-04-07T12:09:56.317Z,22.60
2019-04-07T12:12:27.118Z,22.60
2019-04-07T12:14:57.808Z,22.60
2019-04-07T12:17:28.753Z,22.60
2019-04-07T12:19:59.175Z,22.70
2019-04-07T12:22:47.994Z,22.70
2019-04-07T12:25:17.737Z,22.80
2019-04-07T12:28:05.396Z,22.80
2019-04-07T12:30:51.274Z,22.80
2019-04-07T12:33:23.203Z,22.90
2019-04-07T12:36:00.869Z,22.90
2019-04-07T12:38:43.257Z,22.90
2019-04-07T12:41:19.099Z,22.90
2019-04-07T12:44:01.651Z,23.00
2019-04-07T12:46:34.974Z,23.00
2019-04-07T12:49:07.750Z,22.90
2019-04-07T12:51:37.492Z,22.90
2019-04-07T12:54:12.210Z,22.90
2019-04-07T12:56:52.391Z,23.00
2019-04-07T12:59:39.224Z,23.10
2019-04-07T13:02:10.126Z,23.10
2019-04-07T13:04:41.789Z,23.20
2019-04-07T13:07:17.076Z,23.30
2019-04-07T13:09:56.318Z,23.30
2019-04-07T13:12:30.466Z,23.30
2019-04-07T13:15:19.467Z,23.30
2019-04-07T13:18:08.560Z,23.20
2019-04-07T13:20:40.772Z,23.30
2019-04-07T13:23:12.384Z,23.30
2019-04-07T13:25:43.543Z,23.30
2019-04-07T13:28:15.246Z,23.20
2019-04-07T13:30:59.053Z,23.30
2019-04-07T13:33:39.471Z,23.30
2019-04-07T13:36:10.640Z,23.30
2019-04-07T13:38:44.916Z,23.30
2019-04-07T13:41:20.382Z,23.40
2019-04-07T13:44:07.113Z,23.40
2019-04-07T13:46:37.957Z,23.50
2019-04-07T13:49:18.095Z,23.60
2019-04-07T13:51:49.341Z,23.70
2019-04-07T13:54:25.296Z,23.80
2019-04-07T13:56:56.414Z,23.90
2019-04-07T13:59:45.269Z,24.10
2019-04-07T14:02:17.433Z,24.30
2019-04-07T14:04:48.903Z,24.50
2019-04-07T14:07:27.411Z,24.60
2019-04-07T14:10:03.077Z,24.80
2019-04-07T14:12:34.510Z,24.80
2019-04-07T14:15:09.210Z,24.80
2019-04-07T14:17:50.368Z,24.90
2019-04-07T14:20:37.527Z,25.00
2019-04-07T14:23:24.173Z,25.10
2019-04-07T14:26:08.011Z,25.20
2019-04-07T14:28:40.124Z,25.20
2019-04-07T14:31:20.768Z,25.10
2019-04-07T14:33:58.861Z,25.00
2019-04-07T14:36:32.807Z,24.80
2019-04-07T14:39:12.907Z,24.60
2019-04-07T14:41:43.809Z,24.50
2019-04-07T14:44:18.268Z,24.30
2019-04-07T14:46:50.105Z,24.10
2019-04-07T14:49:22.807Z,24.00
2019-04-07T14:52:03.713Z,24.10
2019-04-07T14:54:40.839Z,24.20
2019-04-07T14:57:12.717Z,24.30
2019-04-07T14:59:56.169Z,24.40
2019-04-07T15:02:25.518Z,24.40
2019-04-07T15:05:04.106Z,24.40
2019-04-07T15:07:47.188Z,24.40
2019-04-07T15:10:20.142Z,24.30
2019-04-07T15:12:51.289Z,24.40
2019-04-07T15:15:21.459Z,24.30
2019-04-07T15:17:51.210Z,24.20
2019-04-07T15:20:20.418Z,24.10
2019-04-07T15:22:49.879Z,24.10
2019-04-07T15:25:19.493Z,24.10
2019-04-07T15:27:48.975Z,24.00
2019-04-07T15:30:20.187Z,24.00
2019-04-07T15:32:50.386Z,24.00
2019-04-07T15:35:20.100Z,24.00
2019-04-07T15:37:51.562Z,24.00
2019-04-07T15:40:21.419Z,24.00
2019-04-07T15:42:51.223Z,24.00
2019-04-07T15:45:21.575Z,24.00
2019-04-07T15:47:53.830Z,24.00
2019-04-07T15:50:22.651Z,24.00
2019-04-07T15:52:52.706Z,23.90
2019-04-07T15:55:26.370Z,23.80
2019-04-07T15:57:57.097Z,23.80
2019-04-07T16:00:25.774Z,23.70
2019-04-07T16:02:55.496Z,23.60
2019-04-07T16:05:24.513Z,23.60
2019-04-07T16:07:55.425Z,23.50
2019-04-07T16:10:26.161Z,23.40
2019-04-07T16:12:59.019Z,23.20
2019-04-07T16:15:27.332Z,23.10
2019-04-07T16:17:56.907Z,23.10
2019-04-07T16:20:32.329Z,23.10
2019-04-07T16:22:59.617Z,23.10
2019-04-07T16:25:32.215Z,23.00
2019-04-07T16:28:03.508Z,23.00
2019-04-07T16:30:34.041Z,22.90
2019-04-07T16:33:05.581Z,22.80
2019-04-07T16:35:36.499Z,22.70
2019-04-07T16:38:05.990Z,22.70
2019-04-07T16:40:35.934Z,22.60
2019-04-07T16:43:13.371Z,22.50
2019-04-07T16:45:36.719Z,22.50
2019-04-07T16:48:08.058Z,22.40
2019-04-07T16:50:39.858Z,22.40
2019-04-07T16:53:09.500Z,22.30
2019-04-07T16:55:41.575Z,22.20
2019-04-07T16:58:14.257Z,22.20
2019-04-07T17:00:43.993Z,22.10
2019-04-07T17:03:15.309Z,22.00
2019-04-07T17:05:46.317Z,21.90
2019-04-07T17:08:19.356Z,21.80
2019-04-07T17:10:48.630Z,21.70
2019-04-07T17:13:24.797Z,21.70
2019-04-07T17:15:51.577Z,21.60
2019-04-07T17:18:38.876Z,21.50
2019-04-07T17:21:15.092Z,21.40
2019-04-07T17:23:44.265Z,21.30
2019-04-07T17:26:13.904Z,21.10
2019-04-07T17:28:45.168Z,21.00
2019-04-07T17:31:16.287Z,20.90
2019-04-07T17:33:46.933Z,20.80
2019-04-07T17:36:20.924Z,20.70
2019-04-07T17:39:09.616Z,20.60
2019-04-07T17:41:39.270Z,20.60
2019-04-07T17:44:18.030Z,20.50
2019-04-07T17:46:57.899Z,20.40
2019-04-07T17:49:34.658Z,20.30
2019-04-07T17:52:22.830Z,20.20
2019-04-07T17:55:10.617Z,20.10
2019-04-07T17:57:50.780Z,20.10
2019-04-07T18:00:30.162Z,20.00
2019-04-07T18:03:06.101Z,19.90
2019-04-07T18:05:40.678Z,19.80
2019-04-07T18:08:25.134Z,19.80
2019-04-07T18:11:02.351Z,19.70
2019-04-07T18:13:49.088Z,19.60
2019-04-07T18:16:30.672Z,19.50
2019-04-07T18:19:04.758Z,19.50
2019-04-07T18:21:52.411Z,19.40
2019-04-07T18:24:31.703Z,19.30
2019-04-07T18:27:03.133Z,19.30
2019-04-07T18:29:38.387Z,19.20
2019-04-07T18:32:13.185Z,19.10
2019-04-07T18:34:45.036Z,19.10
2019-04-07T18:37:18.851Z,19.00
2019-04-07T18:40:00.249Z,19.00
2019-04-07T18:42:45.560Z,18.90
2019-04-07T18:45:19.691Z,18.80
2019-04-07T18:47:58.071Z,18.70
2019-04-07T18:50:28.964Z,18.60
2019-04-07T18:53:12.445Z,18.60
2019-04-07T18:56:00.108Z,18.50
2019-04-07T18:58:36.812Z,18.40
2019-04-07T19:01:24.406Z,18.40
2019-04-07T19:04:02.479Z,18.30
2019-04-07T19:06:36.938Z,18.20
2019-04-07T19:09:14.194Z,18.10
2019-04-07T19:12:02.806Z,18.00
2019-04-07T19:14:40.226Z,18.00
2019-04-07T19:16:59.704Z,17.90
2019-04-07T19:19:49.237Z,17.90
2019-04-07T19:22:23.222Z,17.80
2019-04-07T19:24:54.736Z,17.70
2019-04-07T19:27:31.011Z,17.70
2019-04-07T19:30:07.353Z,17.70
2019-04-07T19:32:38.887Z,17.60
2019-04-07T19:35:11.516Z,17.50
2019-04-07T19:38:01.149Z,17.50
2019-04-07T19:40:51.068Z,17.40
2019-04-07T19:43:25.345Z,17.40
2019-04-07T19:46:09.240Z,17.30
2019-04-07T19:48:43.106Z,17.30
2019-04-07T19:51:22.488Z,17.20
2019-04-07T19:54:04.408Z,17.20
2019-04-07T19:56:35.792Z,17.10
2019-04-07T19:59:12.837Z,17.10
2019-04-07T20:02:02.248Z,17.00
2019-04-07T20:04:34.391Z,17.00
2019-04-07T20:07:13.733Z,16.90
2019-04-07T20:09:50.956Z,16.90
2019-04-07T20:12:22.354Z,16.90
2019-04-07T20:15:06.942Z,16.80
2019-04-07T20:17:43.993Z,16.80
2019-04-07T20:20:21.754Z,16.80
2019-04-07T20:23:02.196Z,16.80
2019-04-07T20:25:46.227Z,16.70
2019-04-07T20:28:15.324Z,16.70
2019-04-07T20:30:51.164Z,16.70
2019-04-07T20:33:38.646Z,16.70
2019-04-07T20:36:23.508Z,16.60
2019-04-07T20:38:52.090Z,16.60
2019-04-07T20:41:29.464Z,16.60
2019-04-07T20:44:18.868Z,16.60
2019-04-07T20:47:07.808Z,16.60
2019-04-07T20:49:47.774Z,16.60
2019-04-07T20:52:20.106Z,16.50
2019-04-07T20:54:51.768Z,16.50
2019-04-07T20:57:39.095Z,16.50
2019-04-07T21:00:26.512Z,16.50
2019-04-07T21:03:17.168Z,16.50
2019-04-07T21:05:44.168Z,16.50
2019-04-07T21:08:24.099Z,16.40
2019-04-07T21:11:01.496Z,16.40
2019-04-07T21:13:50.392Z,16.40
2019-04-07T21:16:33.847Z,16.40
2019-04-07T21:19:07.756Z,16.30
2019-04-07T21:21:49.890Z,16.30
2019-04-07T21:24:27.210Z,16.30
2019-04-07T21:27:16.377Z,16.20
2019-04-07T21:30:00.700Z,16.20
2019-04-07T21:32:31.591Z,16.10
2019-04-07T21:35:09.265Z,16.10
2019-04-07T21:37:40.870Z,16.00
2019-04-07T21:40:18.703Z,16.00
2019-04-07T21:43:02.661Z,16.00
2019-04-07T21:45:52.815Z,15.90
2019-04-07T21:48:30.648Z,15.90
2019-04-07T21:51:08.606Z,15.90
2019-04-07T21:54:02.224Z,15.80
2019-04-07T21:56:48.867Z,15.80
2019-04-07T21:59:26.617Z,15.80
2019-04-07T22:02:11.838Z,15.80
2019-04-07T22:04:56.647Z,15.80
2019-04-07T22:07:27.660Z,15.80
2019-04-07T22:10:03.178Z,15.80
2019-04-07T22:12:33.919Z,15.80
2019-04-07T22:15:04.499Z,15.80
2019-04-07T22:17:36.636Z,15.70
2019-04-07T22:20:08.355Z,15.70
2019-04-07T22:22:38.892Z,15.70
2019-04-07T22:25:09.760Z,15.70
2019-04-07T22:27:39.790Z,15.60
2019-04-07T22:30:11.728Z,15.60
2019-04-07T22:32:41.144Z,15.60
2019-04-07T22:35:11.432Z,15.50
2019-04-07T22:37:41.819Z,15.50
2019-04-07T22:40:15.155Z,15.50
2019-04-07T22:42:47.447Z,15.50
2019-04-07T22:45:16.642Z,15.50
2019-04-07T22:47:46.655Z,15.50
2019-04-07T22:50:17.026Z,15.50
2019-04-07T22:52:49.060Z,15.50
2019-04-07T22:55:18.395Z,15.50
2019-04-07T22:57:49.509Z,15.50
2019-04-07T23:00:21.314Z,15.50
2019-04-07T23:02:50.910Z,15.50
2019-04-07T23:05:21.024Z,15.40
2019-04-07T23:07:50.442Z,15.40
2019-04-07T23:10:20.066Z,15.40
2019-04-07T23:12:50.980Z,15.40
2019-04-07T23:15:20.769Z,15.40
2019-04-07T23:17:52.260Z,15.40
2019-04-07T23:20:23.562Z,15.40
2019-04-07T23:22:53.008Z,15.30
2019-04-07T23:25:23.013Z,15.30
2019-04-07T23:27:52.870Z,15.30
2019-04-07T23:30:24.368Z,15.30
2019-04-07T23:32:57.829Z,15.30
2019-04-07T23:35:28.762Z,15.30
2019-04-07T23:37:59.432Z,15.30
2019-04-07T23:40:29.931Z,15.20
2019-04-07T23:42:58.820Z,15.20
2019-04-07T23:45:29.031Z,15.20
2019-04-07T23:47:59.935Z,15.20
2019-04-07T23:50:30.384Z,15.10
2019-04-07T23:53:03.548Z,15.10
2019-04-07T23:55:32.841Z,15.10
2019-04-07T23:58:02.792Z,15.10
